Time;durP1;ratioP1;P1;durP2;ratioP2;P2;SDS_P1;SDS_P2;PMS_P1;PMS_P2;Temp;Humidity;BMP_temperature;BMP_pressure;BME280_temperature;BME280_humidity;BME280_pressure;Samples;Min_cycle;Max_cycle;Signal;HPM_P1;HPM_P2
2022/01/02 00:00:41;;;;;;;12.27;5.93;;;11.60;99.90;;;;;;5034846;28;20045;-71
2022/01/02 00:03:08;;;;;;;7.30;5.55;;;11.60;99.90;;;;;;5035367;28;20045;-70
2022/01/02 00:05:38;;;;;;;11.45;5.70;;;11.60;99.90;;;;;;5035086;28;20501;-69
2022/01/02 00:08:04;;;;;;;10.23;5.53;;;11.60;99.90;;;;;;5034825;28;20078;-69
2022/01/02 00:10:32;;;;;;;12.52;6.47;;;11.50;99.90;;;;;;5034765;28;20048;-70
2022/01/02 00:13:00;;;;;;;12.55;6.60;;;11.60;99.90;;;;;;5034093;28;20083;-70
2022/01/02 00:15:26;;;;;;;11.20;6.03;;;11.50;99.90;;;;;;5034510;28;20536;-70
2022/01/02 00:17:55;;;;;;;14.90;6.75;;;11.60;99.90;;;;;;5034655;28;20045;-70
2022/01/02 00:20:31;;;;;;;10.20;5.68;;;11.60;99.90;;;;;;5033011;28;20048;-70
2022/01/02 00:23:00;;;;;;;8.90;5.80;;;11.50;99.90;;;;;;5034185;28;20075;-71
2022/01/02 00:25:31;;;;;;;8.75;5.65;;;11.50;99.90;;;;;;5033365;28;20400;-70
2022/01/02 00:27:58;;;;;;;16.85;6.15;;;11.40;99.90;;;;;;5034317;28;20405;-70
2022/01/02 00:30:24;;;;;;;8.10;5.60;;;11.40;99.90;;;;;;5034545;28;20072;-70
2022/01/02 00:32:54;;;;;;;9.95;5.50;;;11.40;99.90;;;;;;5016820;28;20041;-70
2022/01/02 00:35:22;;;;;;;8.57;5.53;;;11.40;99.90;;;;;;5035653;28;20042;-71
2022/01/02 00:37:47;;;;;;;9.60;6.22;;;11.40;99.90;;;;;;5036431;28;20416;-70
2022/01/02 00:40:14;;;;;;;17.20;6.75;;;11.40;99.90;;;;;;5019158;28;20037;-70
2022/01/02 00:42:42;;;;;;;15.18;6.57;;;11.40;99.90;;;;;;5037067;28;20041;-71
2022/01/02 00:45:18;;;;;;;11.80;6.40;;;11.30;99.90;;;;;;5033648;28;20041;-71
2022/01/02 00:48:04;;;;;;;12.27;6.13;;;11.40;99.90;;;;;;5032787;28;20052;-71
2022/01/02 00:50:37;;;;;;;10.75;5.97;;;11.40;99.90;;;;;;5033864;28;20037;-71
2022/01/02 00:53:05;;;;;;;10.23;5.75;;;11.30;99.90;;;;;;5015794;28;20038;-70
2022/01/02 00:55:33;;;;;;;16.20;5.90;;;11.30;99.90;;;;;;5033890;28;20045;-70
2022/01/02 00:58:07;;;;;;;11.38;6.25;;;11.40;99.90;;;;;;5033891;28;20133;-70
2022/01/02 01:00:34;;;;;;;11.57;6.43;;;11.30;99.90;;;;;;5033682;28;20034;-71
2022/01/02 01:03:09;;;;;;;12.07;6.35;;;11.40;99.90;;;;;;5032446;28;20401;-70
2022/01/02 01:05:36;;;;;;;12.38;5.70;;;11.30;99.90;;;;;;5032671;28;20444;-70
2022/01/02 01:08:05;;;;;;;8.90;5.97;;;11.30;99.90;;;;;;5033633;28;20405;-70
2022/01/02 01:10:33;;;;;;;12.82;6.28;;;11.30;99.90;;;;;;5032045;28;20048;-70
2022/01/02 01:13:02;;;;;;;12.07;6.00;;;11.30;99.90;;;;;;5033180;28;20498;-69
2022/01/02 01:15:29;;;;;;;12.40;6.50;;;11.30;99.90;;;;;;5032216;28;20045;-70
2022/01/02 01:17:57;;;;;;;12.60;6.22;;;11.30;99.90;;;;;;5033523;28;20046;-70
2022/01/02 01:20:25;;;;;;;12.88;6.03;;;11.30;99.90;;;;;;5031959;28;20064;-70
2022/01/02 01:22:50;;;;;;;11.70;6.20;;;11.30;99.90;;;;;;5033200;28;20505;-70
2022/01/02 01:25:18;;;;;;;12.38;6.20;;;11.30;99.90;;;;;;5032353;28;20266;-71
2022/01/02 01:27:48;;;;;;;10.43;6.18;;;11.30;99.90;;;;;;5033094;28;20045;-70
2022/01/02 01:30:16;;;;;;;12.18;6.35;;;11.30;99.90;;;;;;5033316;28;20593;-71
2022/01/02 01:32:43;;;;;;;12.23;6.18;;;11.30;99.90;;;;;;5031561;28;20486;-70
2022/01/02 01:35:10;;;;;;;10.75;5.82;;;11.30;99.90;;;;;;5033160;28;20061;-70
2022/01/02 01:37:36;;;;;;;16.15;6.60;;;11.30;99.90;;;;;;5033187;28;20045;-71
2022/01/02 01:40:04;;;;;;;10.10;5.85;;;11.30;99.90;;;;;;5032952;28;20116;-70
2022/01/02 01:42:37;;;;;;;10.57;5.97;;;11.30;99.90;;;;;;5032770;28;20047;-70
2022/01/02 01:47:46;;;;;;;11.48;6.05;;;11.30;99.90;;;;;;5032906;28;20057;-71
2022/01/02 01:50:12;;;;;;;12.18;6.20;;;11.30;99.90;;;;;;5032632;28;20042;-70
2022/01/02 01:52:38;;;;;;;15.50;6.78;;;11.30;99.90;;;;;;5032468;28;20521;-71
2022/01/02 01:55:05;;;;;;;11.15;5.30;;;11.30;99.90;;;;;;5031436;28;20127;-71
2022/01/02 01:57:31;;;;;;;14.13;7.00;;;11.30;99.90;;;;;;5031346;28;20049;-71
2022/01/02 01:59:57;;;;;;;13.82;6.85;;;11.20;99.90;;;;;;5032676;28;20124;-70
2022/01/02 02:02:23;;;;;;;13.02;6.43;;;11.30;99.90;;;;;;5032372;28;20119;-71
2022/01/02 02:04:49;;;;;;;13.25;6.88;;;11.30;99.90;;;;;;5031164;28;20042;-71
2022/01/02 02:07:15;;;;;;;12.93;6.25;;;11.30;99.90;;;;;;5032706;28;20398;-71
2022/01/02 02:09:59;;;;;;;12.88;6.60;;;11.30;99.90;;;;;;5032416;28;20076;-71
2022/01/02 02:12:25;;;;;;;15.05;6.53;;;11.30;99.90;;;;;;5030628;28;20038;-70
2022/01/02 02:14:51;;;;;;;13.20;6.28;;;11.20;99.90;;;;;;5032279;28;20133;-70
2022/01/02 02:17:17;;;;;;;14.27;6.95;;;11.30;99.90;;;;;;5030994;28;20121;-70
2022/01/02 02:19:42;;;;;;;15.65;6.07;;;11.30;99.90;;;;;;5031151;28;20096;-70
2022/01/02 02:22:08;;;;;;;16.27;6.30;;;11.30;99.90;;;;;;5032051;28;20045;-70
2022/01/02 02:24:34;;;;;;;14.30;7.00;;;11.30;99.90;;;;;;5032221;28;20049;-70
2022/01/02 02:26:59;;;;;;;12.00;6.63;;;11.20;99.90;;;;;;5032137;28;20045;-70
2022/01/02 02:29:25;;;;;;;13.20;6.78;;;11.30;99.90;;;;;;5032406;28;20484;-69
2022/01/02 02:31:54;;;;;;;17.90;7.22;;;11.20;99.90;;;;;;5030368;28;20130;-70
2022/01/02 02:34:20;;;;;;;11.52;7.13;;;11.20;99.90;;;;;;5032144;28;20037;-70
2022/01/02 02:36:46;;;;;;;13.57;6.75;;;11.20;99.90;;;;;;5032078;28;20064;-70
2022/01/02 02:39:11;;;;;;;15.68;6.30;;;11.20;99.90;;;;;;5032933;28;20044;-70
2022/01/02 02:41:38;;;;;;;13.80;6.60;;;11.20;99.90;;;;;;5032454;28;20086;-70
2022/01/02 02:44:15;;;;;;;13.85;6.32;;;11.30;99.90;;;;;;5031792;28;20041;-70
2022/01/02 02:49:25;;;;;;;18.92;7.20;;;11.20;99.90;;;;;;5030749;28;20405;-70
2022/01/02 02:51:54;;;;;;;12.68;6.38;;;11.20;99.90;;;;;;5031499;28;20045;-70
2022/01/02 02:54:26;;;;;;;14.25;8.00;;;11.20;99.90;;;;;;5030251;28;20049;-70
2022/01/02 02:56:56;;;;;;;15.88;7.50;;;11.20;99.90;;;;;;5030151;28;20123;-70
2022/01/02 02:59:28;;;;;;;15.25;6.75;;;11.10;99.90;;;;;;5029821;28;20044;-70
2022/01/02 03:01:54;;;;;;;11.55;6.60;;;11.20;99.90;;;;;;5031287;28;20120;-70
2022/01/02 03:04:20;;;;;;;13.75;6.50;;;11.20;99.90;;;;;;5031520;28;20041;-70
2022/01/02 03:06:46;;;;;;;13.30;6.40;;;11.20;99.90;;;;;;5031429;28;20241;-70
2022/01/02 03:09:13;;;;;;;17.23;7.15;;;11.20;99.90;;;;;;5030037;28;20100;-70
2022/01/02 03:11:42;;;;;;;14.27;7.45;;;11.20;99.90;;;;;;5030031;28;20077;-70
2022/01/02 03:14:11;;;;;;;14.10;6.78;;;11.20;99.90;;;;;;5031413;28;20052;-69
2022/01/02 03:16:37;;;;;;;13.00;7.03;;;11.20;99.90;;;;;;5031225;28;20037;-70
2022/01/02 03:19:03;;;;;;;12.88;6.70;;;11.10;99.90;;;;;;5030136;28;20053;-70
2022/01/02 03:21:29;;;;;;;10.68;7.05;;;11.10;99.90;;;;;;5031126;28;20117;-70
2022/01/02 03:23:54;;;;;;;13.75;6.75;;;11.10;99.90;;;;;;5030777;28;20121;-70
2022/01/02 03:26:21;;;;;;;14.45;6.75;;;11.10;99.90;;;;;;5029541;28;20045;-70
2022/01/02 03:28:47;;;;;;;11.77;6.50;;;11.10;99.90;;;;;;5030944;28;20087;-70
2022/01/02 03:31:13;;;;;;;11.07;6.95;;;11.10;99.90;;;;;;5031108;28;20397;-70
2022/01/02 03:33:39;;;;;;;17.00;7.10;;;11.10;99.90;;;;;;5029455;28;20041;-70
2022/01/02 03:36:06;;;;;;;15.65;7.10;;;11.10;99.90;;;;;;5031060;28;20068;-70
2022/01/02 03:38:32;;;;;;;12.77;6.90;;;11.10;99.90;;;;;;5030138;28;20041;-70
2022/01/02 03:40:57;;;;;;;16.05;7.43;;;11.10;99.90;;;;;;5029227;28;20042;-70
2022/01/02 03:43:23;;;;;;;11.38;6.70;;;11.10;99.90;;;;;;5029042;28;20053;-70
2022/01/02 03:45:49;;;;;;;13.30;6.68;;;11.10;99.90;;;;;;5030824;28;20085;-70
2022/01/02 03:48:14;;;;;;;14.95;6.18;;;11.10;99.90;;;;;;5030778;28;20037;-69
2022/01/02 03:50:40;;;;;;;15.63;6.18;;;11.00;99.90;;;;;;5030351;28;20096;-69
2022/01/02 03:53:06;;;;;;;19.35;7.47;;;11.10;99.90;;;;;;5029060;28;20050;-70
2022/01/02 03:55:33;;;;;;;15.48;6.75;;;11.10;99.90;;;;;;5031046;28;20052;-70
2022/01/02 03:57:59;;;;;;;12.13;7.22;;;11.10;99.90;;;;;;5031177;28;20034;-70
2022/01/02 04:00:24;;;;;;;14.57;6.47;;;11.10;99.90;;;;;;5029389;28;20464;-70
2022/01/02 04:02:50;;;;;;;14.65;6.40;;;11.10;99.90;;;;;;5030420;28;20613;-69
2022/01/02 04:05:16;;;;;;;17.40;6.63;;;11.20;99.90;;;;;;5030605;28;20496;-70
2022/01/02 04:07:43;;;;;;;14.20;6.32;;;11.10;99.90;;;;;;5030846;28;20087;-70
2022/01/02 04:10:12;;;;;;;15.63;6.75;;;11.10;99.90;;;;;;5030631;28;20072;-70
2022/01/02 04:12:37;;;;;;;18.90;7.57;;;11.10;99.90;;;;;;5028955;28;20038;-69
2022/01/02 04:15:05;;;;;;;13.05;6.20;;;11.20;99.90;;;;;;5030566;28;20051;-69
2022/01/02 04:17:34;;;;;;;13.20;6.57;;;11.10;99.90;;;;;;5030832;28;20029;-69
2022/01/02 04:20:01;;;;;;;16.55;6.75;;;11.10;99.90;;;;;;5012653;28;20496;-69
2022/01/02 04:22:27;;;;;;;15.07;7.05;;;11.10;99.90;;;;;;5028782;28;20045;-69
2022/01/02 04:24:53;;;;;;;13.90;6.38;;;11.10;99.90;;;;;;5030661;28;20045;-70
2022/01/02 04:27:20;;;;;;;16.80;6.63;;;11.10;99.90;;;;;;5029134;28;20132;-69
2022/01/02 04:29:46;;;;;;;11.43;6.30;;;11.10;99.90;;;;;;5030498;28;20061;-70
2022/01/02 04:32:15;;;;;;;15.95;6.07;;;11.10;99.90;;;;;;5028526;28;20033;-70
2022/01/02 04:34:41;;;;;;;17.17;6.50;;;11.10;99.90;;;;;;5030586;28;20121;-70
2022/01/02 04:37:07;;;;;;;14.27;7.13;;;11.10;99.90;;;;;;5033248;28;20440;-70
2022/01/02 04:39:33;;;;;;;14.85;6.82;;;11.10;99.90;;;;;;5034160;28;20090;-70
2022/01/02 04:41:59;;;;;;;14.00;5.70;;;11.20;99.90;;;;;;5033292;28;20106;-70
2022/01/02 04:44:25;;;;;;;14.25;6.40;;;11.20;99.90;;;;;;5034240;28;20049;-70
2022/01/02 04:46:51;;;;;;;15.30;5.20;;;11.20;99.90;;;;;;5034106;28;20045;-70
2022/01/02 04:49:16;;;;;;;11.05;5.50;;;11.20;99.90;;;;;;5034016;28;20055;-70
2022/01/02 04:51:42;;;;;;;16.17;6.18;;;11.20;99.90;;;;;;5033568;28;20406;-69
2022/01/02 04:54:08;;;;;;;17.33;6.10;;;11.20;99.90;;;;;;5033717;28;20053;-70
2022/01/02 04:56:33;;;;;;;13.27;5.45;;;11.20;99.90;;;;;;5033872;28;20049;-70
2022/01/02 04:58:59;;;;;;;18.35;6.32;;;11.20;99.90;;;;;;5033921;28;20064;-70
2022/01/02 05:01:25;;;;;;;17.40;5.75;;;11.30;99.90;;;;;;5032314;28;20042;-70
2022/01/02 05:03:50;;;;;;;12.52;5.50;;;11.30;99.90;;;;;;5033528;28;20521;-70
2022/01/02 05:06:16;;;;;;;22.00;6.18;;;11.30;99.90;;;;;;5033750;28;20512;-70
2022/01/02 05:08:44;;;;;;;20.90;5.50;;;11.30;99.90;;;;;;5033686;28;20038;-70
2022/01/02 05:11:09;;;;;;;14.00;5.40;;;11.40;99.90;;;;;;5033376;28;20047;-70
2022/01/02 05:13:35;;;;;;;14.15;5.55;;;11.40;99.90;;;;;;5033303;28;20049;-69
2022/01/02 05:16:01;;;;;;;16.35;5.80;;;11.40;99.90;;;;;;5032542;28;20485;-70
2022/01/02 05:18:26;;;;;;;13.93;5.00;;;11.40;99.90;;;;;;5033637;28;20099;-70
2022/01/02 05:20:52;;;;;;;14.27;4.85;;;11.40;99.90;;;;;;5031980;28;20072;-70
2022/01/02 05:23:19;;;;;;;15.75;5.53;;;11.40;99.90;;;;;;5033033;28;20489;-70
2022/01/02 05:25:45;;;;;;;11.65;5.25;;;11.50;99.90;;;;;;5033133;28;20045;-70
2022/01/02 05:28:11;;;;;;;19.73;5.40;;;11.50;99.90;;;;;;5033127;28;20041;-70
2022/01/02 05:30:37;;;;;;;13.68;5.03;;;11.50;99.90;;;;;;5033020;28;20587;-70
2022/01/02 05:33:03;;;;;;;15.40;5.35;;;11.50;99.90;;;;;;5032989;28;20049;-70
2022/01/02 05:35:30;;;;;;;14.30;4.90;;;11.60;99.90;;;;;;5033174;28;20039;-70
2022/01/02 05:37:55;;;;;;;16.65;4.63;;;11.60;99.90;;;;;;5032993;28;20486;-70
2022/01/02 05:40:21;;;;;;;14.98;4.40;;;11.60;99.90;;;;;;5032705;28;20037;-70
2022/01/02 05:42:47;;;;;;;15.52;5.20;;;11.70;99.90;;;;;;5031139;28;20052;-70
2022/01/02 05:45:12;;;;;;;20.13;5.53;;;11.60;99.90;;;;;;5031654;28;20456;-70
2022/01/02 05:47:38;;;;;;;17.58;5.03;;;11.70;99.90;;;;;;5031273;28;20164;-70
2022/01/02 05:50:07;;;;;;;13.95;4.25;;;11.70;99.90;;;;;;5032714;28;20037;-70
2022/01/02 05:52:33;;;;;;;8.85;3.42;;;11.70;99.90;;;;;;5032675;28;20053;-70
2022/01/02 05:54:59;;;;;;;10.70;3.75;;;11.80;99.90;;;;;;5032890;28;20037;-70
2022/01/02 05:57:25;;;;;;;10.45;4.07;;;11.90;99.90;;;;;;5032751;28;20091;-70
2022/01/02 05:59:50;;;;;;;18.33;4.57;;;11.90;99.90;;;;;;5032391;28;20064;-70
2022/01/02 06:02:16;;;;;;;12.68;4.30;;;11.90;99.90;;;;;;5032123;28;20037;-70
2022/01/02 06:04:41;;;;;;;15.13;4.65;;;11.90;99.90;;;;;;5032690;28;20111;-70
2022/01/02 06:07:08;;;;;;;11.88;4.57;;;11.90;99.90;;;;;;5031318;28;20132;-70
2022/01/02 06:09:33;;;;;;;16.25;3.70;;;11.90;99.90;;;;;;5032634;28;20124;-70
2022/01/02 06:11:59;;;;;;;15.77;4.13;;;12.00;99.90;;;;;;5032298;28;20116;-70
2022/01/02 06:14:25;;;;;;;15.02;3.80;;;12.00;99.90;;;;;;5032463;28;20125;-70
2022/01/02 06:16:50;;;;;;;11.70;4.32;;;12.00;99.90;;;;;;5032499;28;20076;-70
2022/01/02 06:19:16;;;;;;;9.70;3.50;;;12.00;99.90;;;;;;5032169;28;20041;-70
2022/01/02 06:21:41;;;;;;;10.00;3.50;;;12.00;99.90;;;;;;5032180;28;20069;-69
2022/01/02 06:24:07;;;;;;;11.68;3.45;;;12.10;99.90;;;;;;5032177;28;20489;-70
2022/01/02 06:26:32;;;;;;;12.27;3.50;;;12.00;99.90;;;;;;5030827;28;20420;-70
2022/01/02 06:29:02;;;;;;;13.43;4.13;;;12.00;99.90;;;;;;5030823;28;20056;-70
2022/01/02 06:31:29;;;;;;;12.15;3.58;;;12.00;99.90;;;;;;5030753;28;20057;-70
2022/01/02 06:33:54;;;;;;;9.00;3.78;;;12.00;99.90;;;;;;5031839;28;20073;-70
2022/01/02 06:36:20;;;;;;;12.30;4.00;;;12.00;99.90;;;;;;5031046;28;20130;-70
2022/01/02 06:38:45;;;;;;;15.23;4.07;;;12.00;99.90;;;;;;5030656;28;20048;-70
2022/01/02 06:41:12;;;;;;;15.23;4.88;;;12.00;99.90;;;;;;5031673;28;20042;-70
2022/01/02 06:43:38;;;;;;;7.88;3.55;;;12.00;99.90;;;;;;5029960;28;20045;-70
2022/01/02 06:46:05;;;;;;;11.55;3.92;;;12.00;99.90;;;;;;5031729;28;20106;-70
2022/01/02 06:48:30;;;;;;;15.50;3.65;;;12.00;99.90;;;;;;5031843;28;20042;-70
2022/01/02 06:50:56;;;;;;;16.23;4.45;;;11.90;99.90;;;;;;5031715;28;20496;-70
2022/01/02 06:53:21;;;;;;;12.95;4.47;;;11.90;99.90;;;;;;5031415;28;20053;-70
2022/01/02 06:55:47;;;;;;;15.48;4.65;;;11.90;99.90;;;;;;5047108;28;20041;-70
2022/01/02 06:58:14;;;;;;;13.52;4.38;;;11.90;99.90;;;;;;5030229;28;20120;-70
2022/01/02 07:00:40;;;;;;;11.85;4.53;;;12.00;99.90;;;;;;5030690;28;20041;-70
2022/01/02 07:03:06;;;;;;;6.30;3.65;;;11.90;99.90;;;;;;5030088;28;20588;-70
2022/01/02 07:05:32;;;;;;;8.30;4.13;;;11.90;99.90;;;;;;5031694;28;20124;-70
2022/01/02 07:07:57;;;;;;;10.05;4.13;;;11.90;99.90;;;;;;5030204;28;20042;-70
2022/01/02 07:10:23;;;;;;;9.45;4.63;;;11.90;99.90;;;;;;5029924;28;20103;-70
2022/01/02 07:12:49;;;;;;;13.85;4.40;;;11.90;99.90;;;;;;5030825;28;20091;-70
2022/01/02 07:15:14;;;;;;;8.95;4.07;;;11.90;99.90;;;;;;5029906;28;20048;-70
2022/01/02 07:17:40;;;;;;;14.88;4.95;;;11.90;99.90;;;;;;5030028;28;20495;-70
2022/01/02 07:20:09;;;;;;;9.27;4.60;;;11.90;99.90;;;;;;5030105;28;20112;-70
2022/01/02 07:22:35;;;;;;;16.10;4.53;;;11.80;99.90;;;;;;5030816;28;20042;-71
2022/01/02 07:25:00;;;;;;;11.18;4.60;;;11.80;99.90;;;;;;5031192;28;20048;-70
2022/01/02 07:27:26;;;;;;;9.63;4.60;;;11.80;99.90;;;;;;5029771;28;20076;-70
2022/01/02 07:29:54;;;;;;;10.85;4.40;;;11.70;99.90;;;;;;5031014;28;20038;-70
2022/01/02 07:32:20;;;;;;;15.02;5.05;;;11.80;99.90;;;;;;5031003;28;20063;-69
2022/01/02 07:34:46;;;;;;;16.13;4.47;;;11.70;99.90;;;;;;5030934;28;20057;-70
2022/01/02 07:37:12;;;;;;;10.35;4.72;;;11.70;99.90;;;;;;5031132;28;20528;-70
2022/01/02 07:39:37;;;;;;;13.60;5.03;;;11.70;99.90;;;;;;5029621;28;20402;-70
2022/01/02 07:42:04;;;;;;;10.48;5.10;;;11.70;99.90;;;;;;5028939;28;20081;-70
2022/01/02 07:44:29;;;;;;;15.63;5.13;;;11.70;99.90;;;;;;5031044;28;20048;-70
2022/01/02 07:46:55;;;;;;;12.60;5.13;;;11.70;99.90;;;;;;5031020;28;20041;-69
2022/01/02 07:49:21;;;;;;;17.60;4.97;;;11.70;99.90;;;;;;5030968;28;20406;-70
2022/01/02 07:51:47;;;;;;;14.32;5.47;;;11.70;99.90;;;;;;5029574;28;20069;-69
2022/01/02 07:54:13;;;;;;;12.68;4.72;;;11.70;99.90;;;;;;5030985;28;20135;-70
2022/01/02 07:56:39;;;;;;;11.18;5.25;;;11.70;99.90;;;;;;5013099;28;20124;-70
2022/01/02 07:59:05;;;;;;;14.60;5.00;;;11.70;99.90;;;;;;5030734;28;20048;-70
2022/01/02 08:01:31;;;;;;;12.88;5.07;;;11.60;99.90;;;;;;5030827;28;20033;-70
2022/01/02 08:03:57;;;;;;;7.70;4.57;;;11.60;99.90;;;;;;5029368;28;20080;-72
2022/01/02 08:06:22;;;;;;;13.45;6.00;;;11.70;99.90;;;;;;5030834;28;20041;-72
2022/01/02 08:08:48;;;;;;;14.10;5.57;;;11.70;99.90;;;;;;5029525;28;20041;-70
2022/01/02 08:11:17;;;;;;;10.13;5.10;;;11.70;99.90;;;;;;5030902;28;20045;-73
2022/01/02 08:13:44;;;;;;;16.40;4.90;;;11.70;99.90;;;;;;5033181;28;20041;-72
2022/01/02 08:16:10;;;;;;;14.98;4.93;;;11.70;99.90;;;;;;5036502;28;20583;-71
2022/01/02 08:18:36;;;;;;;9.23;4.55;;;11.70;99.90;;;;;;5039728;28;20045;-70
2022/01/02 08:21:02;;;;;;;14.43;5.65;;;11.70;99.90;;;;;;5031615;28;20124;-71
2022/01/02 08:23:27;;;;;;;12.48;4.68;;;11.70;99.90;;;;;;5031828;28;20057;-71
2022/01/02 08:25:53;;;;;;;13.80;4.97;;;11.70;99.90;;;;;;5042519;28;20507;-71
2022/01/02 08:28:19;;;;;;;10.77;4.72;;;11.60;99.90;;;;;;5035801;28;20144;-71
2022/01/02 08:30:47;;;;;;;10.57;4.70;;;11.60;99.90;;;;;;5033276;28;20616;-72
2022/01/02 08:33:13;;;;;;;12.25;5.15;;;11.60;99.90;;;;;;5032187;28;20049;-71
2022/01/02 08:35:39;;;;;;;8.68;4.53;;;11.60;99.90;;;;;;5033928;28;20046;-71
2022/01/02 08:38:04;;;;;;;9.85;4.57;;;11.60;99.90;;;;;;5033232;28;20412;-72
2022/01/02 08:40:30;;;;;;;15.70;5.07;;;11.60;99.90;;;;;;5032606;28;20045;-72
2022/01/02 08:42:56;;;;;;;8.70;4.30;;;11.60;99.90;;;;;;5021234;28;20661;-72
2022/01/02 08:45:21;;;;;;;9.15;3.80;;;11.60;99.90;;;;;;5023688;28;20410;-72
2022/01/02 08:47:50;;;;;;;10.48;4.65;;;11.60;99.90;;;;;;5026878;28;20446;-72
2022/01/02 08:50:16;;;;;;;8.88;4.03;;;11.60;99.90;;;;;;5026566;28;20402;-73
2022/01/02 08:52:41;;;;;;;10.40;4.10;;;11.60;99.90;;;;;;5030952;28;20707;-73
2022/01/02 08:55:07;;;;;;;12.40;3.92;;;11.60;99.90;;;;;;5031447;28;20133;-73
2022/01/02 08:57:33;;;;;;;10.07;4.03;;;11.60;99.90;;;;;;5032167;28;20033;-72
2022/01/02 08:59:58;;;;;;;13.43;4.47;;;11.70;99.90;;;;;;5033649;28;20042;-72
2022/01/02 09:02:24;;;;;;;7.15;3.83;;;11.70;99.90;;;;;;5028832;28;20041;-72
2022/01/02 09:04:49;;;;;;;11.48;4.13;;;11.70;99.90;;;;;;5031359;28;20052;-71
2022/01/02 09:07:15;;;;;;;6.55;4.13;;;11.70;99.90;;;;;;5030504;28;20037;-71
2022/01/02 09:09:41;;;;;;;7.47;4.32;;;11.70;99.90;;;;;;5024254;28;20155;-71
2022/01/02 09:12:09;;;;;;;7.55;3.97;;;11.80;99.90;;;;;;5021277;28;20668;-71
2022/01/02 09:14:35;;;;;;;9.15;3.50;;;11.70;99.90;;;;;;5006020;28;20132;-70
2022/01/02 09:17:01;;;;;;;10.88;4.13;;;11.70;99.90;;;;;;5023169;28;20038;-70
2022/01/02 09:19:27;;;;;;;10.48;3.90;;;11.70;99.90;;;;;;5024563;28;20037;-70
2022/01/02 09:21:52;;;;;;;10.98;4.00;;;11.70;99.90;;;;;;5032581;28;20156;-70
2022/01/02 09:24:18;;;;;;;7.78;4.50;;;11.70;99.90;;;;;;5032488;28;20052;-70
2022/01/02 09:26:44;;;;;;;8.10;4.45;;;11.70;99.90;;;;;;5031427;28;20159;-71
2022/01/02 09:29:09;;;;;;;13.15;4.50;;;11.70;99.90;;;;;;5021737;28;20045;-71
2022/01/02 09:31:35;;;;;;;6.05;3.80;;;11.70;99.90;;;;;;5018365;28;20091;-71
2022/01/02 09:34:01;;;;;;;9.60;4.03;;;11.70;99.90;;;;;;5013285;28;20038;-71
2022/01/02 09:36:26;;;;;;;8.15;4.32;;;11.70;99.90;;;;;;5012210;28;20548;-71
2022/01/02 09:38:54;;;;;;;12.70;3.67;;;11.70;99.90;;;;;;5012258;28;20434;-71
2022/01/02 09:41:20;;;;;;;8.90;3.80;;;11.70;99.90;;;;;;5028051;28;20463;-73
2022/01/02 09:43:47;;;;;;;8.90;4.20;;;11.70;99.90;;;;;;5012901;28;20103;-71
2022/01/02 09:46:21;;;;;;;10.32;4.20;;;11.70;99.90;;;;;;5013176;28;20502;-73
2022/01/02 09:48:48;;;;;;;9.02;3.92;;;11.80;99.90;;;;;;5012086;28;20088;-73
2022/01/02 09:51:16;;;;;;;9.40;4.03;;;11.80;99.90;;;;;;5013143;28;20041;-74
2022/01/02 09:53:44;;;;;;;6.55;3.80;;;11.70;99.90;;;;;;5011383;28;20049;-73
2022/01/02 09:56:10;;;;;;;10.45;4.20;;;11.80;99.90;;;;;;5012993;28;20046;-74
2022/01/02 09:58:36;;;;;;;10.18;4.30;;;11.80;99.90;;;;;;5013084;28;20457;-73
2022/01/02 10:01:02;;;;;;;10.45;4.10;;;11.70;99.90;;;;;;5011698;28;20084;-73
2022/01/02 10:03:41;;;;;;;9.43;4.22;;;11.70;99.90;;;;;;5012775;28;20661;-73
2022/01/02 10:06:07;;;;;;;8.18;3.78;;;11.70;99.90;;;;;;5012804;28;20045;-73
2022/01/02 10:08:34;;;;;;;7.78;4.38;;;11.70;99.90;;;;;;5011442;28;20049;-74
2022/01/02 10:11:04;;;;;;;10.77;3.97;;;11.70;99.90;;;;;;5012908;28;20038;-72
2022/01/02 10:13:43;;;;;;;9.82;4.60;;;11.70;99.90;;;;;;5012538;28;20042;-73
2022/01/02 10:16:33;;;;;;;10.55;5.57;;;11.70;99.90;;;;;;4994715;28;20125;-72
2022/01/02 10:19:20;;;;;;;10.48;4.20;;;11.80;99.90;;;;;;5009848;28;20073;-72
2022/01/02 10:22:01;;;;;;;13.27;4.63;;;11.80;99.90;;;;;;5012410;28;20073;-71
2022/01/02 10:24:32;;;;;;;14.25;4.72;;;11.80;99.90;;;;;;5012988;28;20057;-72
2022/01/02 10:27:05;;;;;;;10.40;4.50;;;11.80;99.90;;;;;;5012305;28;20417;-71
2022/01/02 10:29:50;;;;;;;10.63;4.68;;;11.80;99.90;;;;;;5012582;28;20049;-71
2022/01/02 10:32:34;;;;;;;11.45;5.45;;;11.80;99.90;;;;;;5012072;28;20041;-71
2022/01/02 10:35:09;;;;;;;7.18;4.85;;;11.90;99.90;;;;;;5012159;28;20104;-71
2022/01/02 10:37:35;;;;;;;10.25;4.32;;;11.90;99.90;;;;;;5010907;28;20052;-72
2022/01/02 10:40:01;;;;;;;10.93;4.93;;;11.90;99.90;;;;;;5011154;28;20129;-71
2022/01/02 10:42:27;;;;;;;7.63;4.60;;;11.90;99.90;;;;;;5010813;28;20056;-72
2022/01/02 10:44:53;;;;;;;14.23;4.82;;;11.90;99.90;;;;;;4994643;28;20449;-72
2022/01/02 10:47:21;;;;;;;10.65;4.60;;;11.90;99.90;;;;;;5010814;28;20046;-72
2022/01/02 10:50:05;;;;;;;11.68;4.97;;;12.00;99.90;;;;;;4994251;28;20049;-73
2022/01/02 10:52:40;;;;;;;11.43;4.47;;;11.90;99.90;;;;;;5011832;28;20585;-72
2022/01/02 10:55:19;;;;;;;10.93;4.95;;;12.00;99.90;;;;;;5012000;28;20053;-72
2022/01/02 10:57:47;;;;;;;10.68;5.07;;;12.00;99.90;;;;;;5011840;28;20041;-72
2022/01/02 11:00:14;;;;;;;9.13;4.95;;;12.00;99.90;;;;;;5011709;28;20038;-71
2022/01/02 11:02:40;;;;;;;10.13;5.43;;;12.00;99.90;;;;;;5011758;28;20049;-72
2022/01/02 11:05:12;;;;;;;6.57;5.13;;;12.10;99.90;;;;;;5011873;28;20046;-72
2022/01/02 11:07:46;;;;;;;11.60;5.30;;;12.10;99.90;;;;;;5011728;28;20077;-73
2022/01/02 11:10:21;;;;;;;8.05;4.97;;;12.10;99.90;;;;;;5011695;28;20265;-72
2022/01/02 11:12:49;;;;;;;12.07;5.15;;;12.10;99.90;;;;;;5011234;28;20038;-71
2022/01/02 11:15:20;;;;;;;13.15;5.28;;;12.10;99.90;;;;;;4993595;28;20407;-72
2022/01/02 11:17:46;;;;;;;15.80;5.80;;;12.10;99.90;;;;;;5011472;28;20552;-72
2022/01/02 11:20:15;;;;;;;15.07;5.60;;;12.10;99.90;;;;;;5011450;28;20041;-71
2022/01/02 11:23:00;;;;;;;10.27;5.53;;;12.10;99.90;;;;;;5011115;28;20038;-71
2022/01/02 11:25:56;;;;;;;11.57;5.20;;;12.00;99.90;;;;;;5010178;28;20145;-70
2022/01/02 11:28:24;;;;;;;15.30;5.72;;;12.10;99.90;;;;;;5011265;28;20042;-71
2022/01/02 11:30:51;;;;;;;10.57;4.93;;;12.10;99.90;;;;;;5011333;28;20125;-72
2022/01/02 11:33:25;;;;;;;15.02;4.95;;;12.10;99.90;;;;;;5010997;28;20123;-71
2022/01/02 11:35:51;;;;;;;10.82;4.80;;;12.10;99.90;;;;;;5012805;28;20045;-70
2022/01/02 11:38:19;;;;;;;10.20;4.90;;;12.10;99.90;;;;;;5012554;28;20411;-71
2022/01/02 11:40:57;;;;;;;12.80;4.75;;;12.10;99.90;;;;;;5011122;28;20042;-71
2022/01/02 11:43:35;;;;;;;11.55;4.95;;;12.30;99.90;;;;;;5010246;28;20109;-71
2022/01/02 11:46:14;;;;;;;11.02;4.78;;;12.30;99.90;;;;;;5010976;28;20124;-73
2022/01/02 11:48:40;;;;;;;12.68;5.50;;;12.30;99.90;;;;;;5010113;28;20402;-72
2022/01/02 11:51:06;;;;;;;14.75;4.88;;;12.30;99.90;;;;;;5010487;28;20410;-72
2022/01/02 11:53:35;;;;;;;10.23;4.68;;;12.40;99.90;;;;;;5011090;28;20096;-73
2022/01/02 11:56:01;;;;;;;8.80;3.92;;;12.40;99.90;;;;;;4994623;28;20045;-73
2022/01/02 11:58:38;;;;;;;16.25;4.40;;;12.40;99.90;;;;;;4994172;28;20046;-75
2022/01/02 12:01:06;;;;;;;8.70;4.20;;;12.50;99.90;;;;;;5018422;28;20041;-72
2022/01/02 12:03:38;;;;;;;9.18;3.92;;;12.50;99.90;;;;;;5019206;28;20506;-70
2022/01/02 12:06:21;;;;;;;15.13;4.70;;;12.40;99.90;;;;;;5031291;28;20053;-71
2022/01/02 12:08:48;;;;;;;11.70;4.57;;;12.40;99.90;;;;;;5029604;28;20127;-71
2022/01/02 12:11:32;;;;;;;9.63;4.18;;;12.40;99.90;;;;;;5030871;28;20064;-72
2022/01/02 12:14:06;;;;;;;10.98;4.07;;;12.40;99.90;;;;;;5029051;28;20041;-71
2022/01/02 12:16:39;;;;;;;13.85;4.22;;;12.40;99.90;;;;;;5029889;28;20037;-72
2022/01/02 12:19:05;;;;;;;8.02;4.10;;;12.40;99.90;;;;;;5013228;28;20045;-72
2022/01/02 12:21:33;;;;;;;10.77;4.20;;;12.40;99.90;;;;;;5029136;28;20030;-72
2022/01/02 12:23:59;;;;;;;6.60;4.45;;;12.40;99.90;;;;;;5030295;28;20638;-72
2022/01/02 12:26:32;;;;;;;12.23;4.70;;;12.50;99.90;;;;;;5028479;28;20037;-73
2022/01/02 12:29:05;;;;;;;13.70;5.13;;;12.40;99.90;;;;;;5029218;28;20045;-72
2022/01/02 12:31:50;;;;;;;12.20;4.20;;;12.40;99.90;;;;;;5029417;28;20124;-72
2022/01/02 12:34:18;;;;;;;13.20;4.45;;;12.40;99.90;;;;;;5028760;28;20514;-72
2022/01/02 12:36:46;;;;;;;11.38;5.65;;;12.50;99.90;;;;;;5029415;28;20124;-73
2022/01/02 12:39:34;;;;;;;12.43;3.78;;;12.40;99.90;;;;;;5029250;28;20037;-72
2022/01/02 12:42:05;;;;;;;13.60;3.85;;;12.40;99.90;;;;;;5028537;28;20053;-71
2022/01/02 12:44:34;;;;;;;8.10;3.73;;;12.40;99.90;;;;;;5028480;28;20393;-71
2022/01/02 12:47:04;;;;;;;7.75;3.90;;;12.40;99.90;;;;;;5028340;28;20046;-71